Time;durP1;ratioP1;P1;durP2;ratioP2;P2;SDS_P1;SDS_P2;PMS_P1;PMS_P2;Temp;Humidity;BMP_temperature;BMP_pressure;BME280_temperature;BME280_humidity;BME280_pressure;Samples;Min_cycle;Max_cycle;Signal;HPM_P1;HPM_P2
2022/10/27 00:01:20;;;;;;;8.65;3.08;;;14.20;99.90;;;;;;6277039;22;20058;-83
2022/10/27 00:03:49;;;;;;;8.13;3.08;;;14.20;99.90;;;;;;6277686;22;20012;-83
2022/10/27 00:06:15;;;;;;;9.00;2.97;;;14.10;99.90;;;;;;6249685;22;20019;-83
2022/10/27 00:08:41;;;;;;;8.27;3.50;;;14.10;99.90;;;;;;6249023;22;20023;-83
2022/10/27 00:11:07;;;;;;;7.47;3.10;;;14.10;99.90;;;;;;6274661;22;20390;-83
2022/10/27 00:13:33;;;;;;;7.28;2.92;;;14.10;99.90;;;;;;6275376;22;20435;-83
2022/10/27 00:16:05;;;;;;;8.57;3.72;;;14.10;99.90;;;;;;6248151;22;20032;-83
2022/10/27 00:18:31;;;;;;;6.80;3.00;;;14.10;99.90;;;;;;6276536;22;20083;-83
2022/10/27 00:21:06;;;;;;;13.70;4.43;;;14.10;99.90;;;;;;6275314;22;20017;-84
2022/10/27 00:23:33;;;;;;;8.63;3.70;;;14.10;99.90;;;;;;6277061;22;20007;-84
2022/10/27 00:25:59;;;;;;;9.65;4.05;;;14.00;99.90;;;;;;6249312;22;20312;-83
2022/10/27 00:28:28;;;;;;;5.75;3.00;;;14.00;99.90;;;;;;6275220;22;20435;-84
2022/10/27 00:31:15;;;;;;;9.32;3.25;;;14.00;99.90;;;;;;6276331;22;20371;-84
2022/10/27 00:33:41;;;;;;;7.85;3.22;;;13.90;99.90;;;;;;6249887;22;20016;-84
2022/10/27 00:36:10;;;;;;;10.77;4.20;;;13.90;99.90;;;;;;6275586;22;20515;-84
2022/10/27 00:38:37;;;;;;;9.63;3.80;;;13.90;99.90;;;;;;6276900;22;20012;-83
2022/10/27 00:41:03;;;;;;;7.78;3.00;;;13.90;99.90;;;;;;6275402;22;20038;-84
2022/10/27 00:43:33;;;;;;;6.18;3.03;;;13.90;99.90;;;;;;6276533;22;20392;-84
2022/10/27 00:46:26;;;;;;;10.15;4.07;;;13.80;99.90;;;;;;6276606;22;20066;-84
2022/10/27 00:48:57;;;;;;;6.63;3.00;;;13.80;99.90;;;;;;6248417;22;20019;-84
2022/10/27 00:51:23;;;;;;;6.82;2.97;;;13.80;99.90;;;;;;6249427;22;20022;-84
2022/10/27 00:53:49;;;;;;;6.72;3.15;;;13.80;99.90;;;;;;6276420;22;20325;-84
2022/10/27 00:56:16;;;;;;;6.18;2.97;;;13.80;99.90;;;;;;6248431;22;20030;-84
2022/10/27 00:58:44;;;;;;;6.00;2.90;;;13.80;99.90;;;;;;6277084;22;20335;-84
2022/10/27 01:01:10;;;;;;;5.45;2.67;;;13.80;99.90;;;;;;6276979;22;20074;-84
2022/10/27 01:03:36;;;;;;;4.90;2.88;;;13.80;99.90;;;;;;6276266;22;20016;-84
2022/10/27 01:06:03;;;;;;;5.28;2.90;;;13.70;99.90;;;;;;6276945;22;20734;-84
2022/10/27 01:08:29;;;;;;;6.95;2.85;;;13.70;99.90;;;;;;6276796;22;20015;-84
2022/10/27 01:10:54;;;;;;;6.05;3.10;;;13.70;99.90;;;;;;6275327;22;20178;-85
2022/10/27 01:13:20;;;;;;;6.30;2.95;;;13.70;99.90;;;;;;6276633;22;20012;-84
2022/10/27 01:16:15;;;;;;;8.70;3.70;;;13.70;99.90;;;;;;6248613;22;20020;-84
2022/10/27 01:18:56;;;;;;;7.30;3.60;;;13.70;99.90;;;;;;6249675;22;20029;-84
2022/10/27 01:21:55;;;;;;;9.85;3.92;;;13.70;99.90;;;;;;6276203;22;20015;-84
2022/10/27 01:25:02;;;;;;;7.03;3.72;;;13.60;99.90;;;;;;6248814;22;20502;-84
2022/10/27 01:27:53;;;;;;;6.93;3.30;;;13.60;99.90;;;;;;6275689;22;20458;-84
2022/10/27 01:30:20;;;;;;;7.05;3.33;;;13.60;99.90;;;;;;6276002;22;20016;-84
2022/10/27 01:33:10;;;;;;;6.65;3.30;;;13.60;99.90;;;;;;6275364;22;20008;-84
2022/10/27 01:35:57;;;;;;;6.10;3.22;;;13.60;99.90;;;;;;6275687;22;20379;-84
2022/10/27 01:38:26;;;;;;;5.78;3.28;;;13.60;99.90;;;;;;6275255;22;20023;-84
2022/10/27 01:41:04;;;;;;;7.07;3.20;;;13.60;99.90;;;;;;6276102;22;20022;-84
2022/10/27 01:43:31;;;;;;;7.88;3.42;;;13.60;99.90;;;;;;6275968;22;20022;-84
2022/10/27 01:45:58;;;;;;;5.32;3.00;;;13.60;99.90;;;;;;6275575;22;20014;-83
2022/10/27 01:48:24;;;;;;;4.70;2.60;;;13.60;99.90;;;;;;6276368;22;20443;-84
2022/10/27 01:50:50;;;;;;;7.20;3.00;;;13.60;99.90;;;;;;6276408;22;20100;-84
2022/10/27 01:53:16;;;;;;;5.35;3.10;;;13.60;99.90;;;;;;6248367;22;20023;-84
2022/10/27 01:55:56;;;;;;;5.63;3.00;;;13.60;99.90;;;;;;6276467;22;20468;-84
2022/10/27 01:58:40;;;;;;;7.30;3.10;;;13.60;99.90;;;;;;6275924;22;20019;-83
2022/10/27 02:01:25;;;;;;;8.50;3.50;;;13.60;99.90;;;;;;6275676;22;20019;-83
2022/10/27 02:04:22;;;;;;;8.57;4.57;;;13.60;99.90;;;;;;6276457;22;20015;-83
2022/10/27 02:07:25;;;;;;;8.77;4.10;;;13.60;99.90;;;;;;6247520;22;20016;-83
2022/10/27 02:10:06;;;;;;;7.00;3.20;;;13.60;99.90;;;;;;6248844;22;20090;-84
2022/10/27 02:12:37;;;;;;;7.88;3.45;;;13.60;99.90;;;;;;6275422;22;20074;-84
2022/10/27 02:15:07;;;;;;;10.35;4.40;;;13.60;99.90;;;;;;6275670;22;20019;-84
2022/10/27 02:17:39;;;;;;;8.02;3.85;;;13.60;99.90;;;;;;6276127;22;20008;-83
2022/10/27 02:20:12;;;;;;;5.88;2.83;;;13.60;99.90;;;;;;6274901;22;20087;-84
2022/10/27 02:22:38;;;;;;;5.53;2.70;;;13.60;99.90;;;;;;6276452;22;20016;-84
2022/10/27 02:25:04;;;;;;;5.70;3.03;;;13.70;99.90;;;;;;6248374;22;20043;-83
2022/10/27 02:27:35;;;;;;;5.82;2.85;;;13.60;99.90;;;;;;6275663;22;20008;-83
2022/10/27 02:30:02;;;;;;;9.63;4.07;;;13.60;99.90;;;;;;6250798;22;20016;-84
2022/10/27 02:32:29;;;;;;;5.30;3.03;;;13.60;99.90;;;;;;6277816;22;20011;-84
2022/10/27 02:34:55;;;;;;;5.53;3.10;;;13.60;99.90;;;;;;6249514;22;20091;-84
2022/10/27 02:37:25;;;;;;;11.75;5.40;;;13.60;99.90;;;;;;6277746;22;20086;-84
2022/10/27 02:39:51;;;;;;;7.20;3.55;;;13.60;99.90;;;;;;6278079;22;20031;-84
2022/10/27 02:42:16;;;;;;;6.07;3.47;;;13.60;99.90;;;;;;6277074;22;20004;-84
2022/10/27 02:44:42;;;;;;;6.95;3.10;;;13.60;99.90;;;;;;6250963;22;20081;-84
2022/10/27 02:47:07;;;;;;;9.60;4.13;;;13.60;99.90;;;;;;6250444;22;20434;-84
2022/10/27 02:49:33;;;;;;;8.52;4.28;;;13.60;99.90;;;;;;6277407;22;20371;-84
2022/10/27 02:51:59;;;;;;;5.65;2.90;;;13.60;99.90;;;;;;6277781;22;20019;-83
2022/10/27 02:54:24;;;;;;;13.18;5.00;;;13.60;99.90;;;;;;6275744;22;20015;-84
2022/10/27 02:56:50;;;;;;;16.25;6.20;;;13.60;99.90;;;;;;6250027;22;20069;-84
2022/10/27 02:59:16;;;;;;;14.15;6.35;;;13.60;99.90;;;;;;6277852;22;20042;-84
2022/10/27 03:01:41;;;;;;;14.57;6.07;;;13.60;99.90;;;;;;6249847;22;20027;-84
2022/10/27 03:04:07;;;;;;;11.63;4.53;;;13.60;99.90;;;;;;6277096;22;20012;-84
2022/10/27 03:06:33;;;;;;;7.50;3.40;;;13.60;99.90;;;;;;6277636;22;20020;-84
2022/10/27 03:08:58;;;;;;;6.18;3.45;;;13.60;99.90;;;;;;6276705;22;20077;-84
2022/10/27 03:11:24;;;;;;;6.47;3.30;;;13.60;99.90;;;;;;6277999;22;20016;-84
2022/10/27 03:13:49;;;;;;;6.72;3.25;;;13.60;99.90;;;;;;6277356;22;20062;-83
2022/10/27 03:16:15;;;;;;;7.00;3.28;;;13.50;99.90;;;;;;6276541;22;20098;-83
2022/10/27 03:18:41;;;;;;;5.63;3.42;;;13.50;99.90;;;;;;6277992;22;20328;-84
2022/10/27 03:21:06;;;;;;;6.38;3.65;;;13.50;99.90;;;;;;6277419;22;20011;-83
2022/10/27 03:23:32;;;;;;;6.68;3.83;;;13.50;99.90;;;;;;6276884;22;20365;-83
2022/10/27 03:25:59;;;;;;;8.95;3.53;;;13.50;99.90;;;;;;6277882;22;20074;-84
2022/10/27 03:28:25;;;;;;;7.53;3.65;;;13.50;99.90;;;;;;6277573;22;20012;-84
2022/10/27 03:30:50;;;;;;;4.93;3.30;;;13.50;99.90;;;;;;6275807;22;20019;-84
2022/10/27 03:33:16;;;;;;;7.55;3.15;;;13.50;99.90;;;;;;6277295;22;20012;-84
2022/10/27 03:35:41;;;;;;;5.85;3.65;;;13.50;99.90;;;;;;6276870;22;20479;-84
2022/10/27 03:38:08;;;;;;;7.90;4.35;;;13.50;99.90;;;;;;6248427;22;20016;-84
2022/10/27 03:40:33;;;;;;;10.27;4.95;;;13.50;99.90;;;;;;6250167;22;20019;-85
2022/10/27 03:42:59;;;;;;;6.80;3.70;;;13.50;99.90;;;;;;6249819;22;20110;-84
2022/10/27 03:45:25;;;;;;;13.02;6.55;;;13.50;99.90;;;;;;6248538;22;20023;-83
2022/10/27 03:48:03;;;;;;;8.23;5.18;;;13.50;99.90;;;;;;6276504;22;20020;-84
2022/10/27 03:50:29;;;;;;;9.02;3.85;;;13.50;99.90;;;;;;6249773;22;20052;-84
2022/10/27 03:52:55;;;;;;;7.38;4.25;;;13.50;99.90;;;;;;6247649;22;20022;-84
2022/10/27 03:55:21;;;;;;;7.00;3.60;;;13.50;99.90;;;;;;6277802;22;20027;-84
2022/10/27 03:57:46;;;;;;;6.25;3.65;;;13.40;99.90;;;;;;6275850;22;20007;-83
2022/10/27 04:00:12;;;;;;;6.63;4.15;;;13.40;99.90;;;;;;6276609;22;20022;-82
2022/10/27 04:02:38;;;;;;;7.45;3.63;;;13.40;99.90;;;;;;6277080;22;20015;-84
2022/10/27 04:05:04;;;;;;;6.53;3.78;;;13.40;99.90;;;;;;6276521;22;20015;-90
2022/10/27 04:07:45;;;;;;;6.75;3.97;;;13.40;99.90;;;;;;6250246;22;20016;-91
2022/10/27 04:27:01;;;;;;;;;;;;;;;;;;;;;
2022/10/27 04:33:08;;;;;;;6.88;3.80;;;13.20;99.90;;;;;;6250088;22;20035;-85
2022/10/27 04:35:34;;;;;;;7.00;3.95;;;13.20;99.90;;;;;;6249506;22;20020;-85
2022/10/27 04:37:59;;;;;;;7.25;4.00;;;13.10;99.90;;;;;;6276457;22;20061;-85
2022/10/27 04:40:25;;;;;;;7.65;3.83;;;13.20;99.90;;;;;;6248989;22;20325;-84
2022/10/27 04:42:50;;;;;;;7.30;4.22;;;13.20;99.90;;;;;;6249456;22;20050;-85
2022/10/27 04:45:16;;;;;;;7.60;4.05;;;13.10;99.90;;;;;;6249793;22;20448;-85
2022/10/27 04:47:43;;;;;;;7.72;4.18;;;13.10;99.90;;;;;;6276055;22;20008;-86
2022/10/27 04:50:09;;;;;;;6.03;3.92;;;13.10;99.90;;;;;;6277190;22;20016;-86
2022/10/27 04:52:35;;;;;;;6.97;4.00;;;13.10;99.90;;;;;;6249687;22;20035;-85
2022/10/27 04:55:01;;;;;;;7.63;4.20;;;13.10;99.90;;;;;;6275599;22;20326;-85
2022/10/27 04:57:27;;;;;;;6.22;3.80;;;13.10;99.90;;;;;;6249774;22;20011;-86
2022/10/27 04:59:52;;;;;;;6.30;3.90;;;13.10;99.90;;;;;;6276336;22;20030;-85
2022/10/27 05:02:18;;;;;;;8.15;4.32;;;13.00;99.90;;;;;;6248807;22;20519;-85
2022/10/27 05:04:43;;;;;;;8.38;4.20;;;13.00;99.90;;;;;;6249226;22;20085;-85
2022/10/27 05:07:09;;;;;;;13.63;7.57;;;13.00;99.90;;;;;;6277039;22;20134;-85
2022/10/27 05:09:34;;;;;;;9.30;4.90;;;13.00;99.90;;;;;;6276147;22;20016;-85
2022/10/27 05:12:00;;;;;;;8.32;5.18;;;13.00;99.90;;;;;;6249019;22;20527;-84
2022/10/27 05:14:26;;;;;;;11.40;6.50;;;13.00;99.90;;;;;;6276623;22;20015;-84
2022/10/27 05:16:51;;;;;;;10.70;6.45;;;13.00;99.90;;;;;;6248145;22;20018;-85
2022/10/27 05:19:17;;;;;;;18.08;6.50;;;13.10;99.90;;;;;;6249571;22;20325;-85
2022/10/27 05:21:42;;;;;;;11.20;6.10;;;13.00;99.90;;;;;;6249423;22;20020;-85
2022/10/27 05:24:08;;;;;;;10.77;5.60;;;13.00;99.90;;;;;;6248569;22;20015;-84
2022/10/27 05:26:34;;;;;;;14.02;6.75;;;13.00;99.90;;;;;;6249261;22;20008;-84
2022/10/27 05:28:59;;;;;;;13.07;6.95;;;13.00;99.90;;;;;;6276624;22;20016;-84
2022/10/27 05:31:25;;;;;;;15.05;8.00;;;13.00;99.90;;;;;;6247937;22;20456;-85
2022/10/27 05:33:50;;;;;;;17.23;9.30;;;13.00;99.90;;;;;;6249263;22;20020;-84
2022/10/27 05:36:16;;;;;;;12.52;6.50;;;13.10;99.90;;;;;;6248717;22;20387;-85
2022/10/27 05:38:44;;;;;;;12.35;8.00;;;13.10;99.90;;;;;;6249259;22;20453;-84
2022/10/27 05:41:10;;;;;;;11.68;7.43;;;13.10;99.90;;;;;;6249541;22;20012;-84
2022/10/27 05:43:35;;;;;;;9.88;6.80;;;13.10;99.90;;;;;;6275592;22;20016;-84
2022/10/27 05:46:01;;;;;;;13.02;8.35;;;13.10;99.90;;;;;;6249014;22;20129;-84
2022/10/27 05:48:28;;;;;;;14.48;8.18;;;13.10;99.90;;;;;;6249142;22;20020;-84
2022/10/27 05:50:54;;;;;;;19.42;9.25;;;13.10;99.90;;;;;;6234942;22;20094;-84
2022/10/27 05:53:20;;;;;;;12.38;7.72;;;13.10;99.90;;;;;;6276119;22;20058;-84
2022/10/27 05:55:46;;;;;;;13.05;9.07;;;13.10;99.90;;;;;;6276159;22;20413;-84
2022/10/27 05:58:12;;;;;;;11.35;7.78;;;13.10;99.90;;;;;;6248338;22;20062;-84
2022/10/27 06:00:38;;;;;;;13.98;9.52;;;13.10;99.90;;;;;;6249176;22;20444;-84
2022/10/27 06:03:12;;;;;;;20.45;10.20;;;13.10;99.90;;;;;;6276103;22;20043;-84
2022/10/27 06:05:38;;;;;;;16.17;9.95;;;13.10;99.90;;;;;;6275629;22;20016;-84
2022/10/27 06:08:03;;;;;;;13.25;8.98;;;13.10;99.90;;;;;;6248709;22;20018;-85
2022/10/27 06:10:29;;;;;;;14.90;9.32;;;13.10;99.90;;;;;;6248873;22;20022;-85
2022/10/27 06:13:05;;;;;;;14.88;8.50;;;13.10;99.90;;;;;;6275407;22;20035;-85
2022/10/27 06:15:31;;;;;;;18.58;10.95;;;13.10;99.90;;;;;;6249259;22;20038;-84
2022/10/27 06:17:57;;;;;;;12.32;7.78;;;13.20;99.90;;;;;;6248772;22;20016;-84
2022/10/27 06:20:24;;;;;;;14.35;8.55;;;13.20;99.90;;;;;;6247968;22;20018;-84
2022/10/27 06:22:50;;;;;;;12.32;6.80;;;13.20;99.90;;;;;;6276056;22;20407;-84
2022/10/27 06:25:15;;;;;;;13.15;7.85;;;13.20;99.90;;;;;;6248894;22;20043;-84
2022/10/27 06:27:41;;;;;;;10.70;6.90;;;13.20;99.90;;;;;;6247807;22;20094;-84
2022/10/27 06:30:07;;;;;;;10.60;7.00;;;13.20;99.90;;;;;;6248338;22;20498;-84
2022/10/27 06:32:40;;;;;;;11.80;7.25;;;13.20;99.90;;;;;;6247676;22;20469;-84
2022/10/27 06:35:07;;;;;;;14.30;8.65;;;13.20;99.90;;;;;;6276750;22;20431;-84
2022/10/27 06:37:32;;;;;;;14.25;8.25;;;13.20;99.90;;;;;;6251054;22;20007;-85
2022/10/27 06:39:58;;;;;;;12.98;6.95;;;13.20;99.90;;;;;;6248349;22;20070;-87
2022/10/27 06:42:23;;;;;;;15.60;9.50;;;13.20;99.90;;;;;;6248930;22;20019;-87
2022/10/27 06:44:50;;;;;;;14.13;7.93;;;13.20;99.90;;;;;;6248559;22;20054;-88
2022/10/27 06:47:15;;;;;;;11.32;7.55;;;13.20;99.90;;;;;;6248084;22;20057;-88
2022/10/27 06:49:41;;;;;;;13.77;8.00;;;13.20;99.90;;;;;;6276300;22;20016;-89
2022/10/27 06:52:10;;;;;;;14.15;8.32;;;13.20;99.90;;;;;;6276274;22;20019;-88
2022/10/27 06:54:35;;;;;;;12.00;7.75;;;13.20;99.90;;;;;;6275084;22;20011;-88
2022/10/27 06:57:01;;;;;;;15.43;9.27;;;13.30;99.90;;;;;;6248372;22;20097;-89
2022/10/27 06:59:26;;;;;;;16.63;9.68;;;13.30;99.90;;;;;;6276138;22;20090;-89
2022/10/27 07:01:52;;;;;;;19.65;11.13;;;13.30;99.90;;;;;;6247867;22;20071;-88
2022/10/27 07:04:17;;;;;;;17.63;9.02;;;13.30;99.90;;;;;;6275638;22;20065;-84
2022/10/27 07:06:43;;;;;;;15.25;9.00;;;13.30;99.90;;;;;;6248461;22;20064;-86
2022/10/27 07:09:10;;;;;;;12.98;8.85;;;13.40;99.90;;;;;;6248247;22;20016;-86
2022/10/27 07:11:35;;;;;;;17.02;7.90;;;13.40;99.90;;;;;;6249051;22;20110;-84
2022/10/27 07:14:01;;;;;;;12.15;8.25;;;13.40;99.90;;;;;;6277083;22;20444;-85
2022/10/27 07:16:27;;;;;;;14.95;8.05;;;13.40;99.90;;;;;;6277366;22;20012;-85
2022/10/27 07:18:52;;;;;;;16.65;9.30;;;13.40;99.90;;;;;;6249319;22;20039;-85
2022/10/27 07:21:18;;;;;;;18.92;8.50;;;13.40;99.90;;;;;;6278433;22;20012;-86
2022/10/27 07:23:43;;;;;;;14.50;7.88;;;13.40;99.90;;;;;;6249416;22;20019;-84
2022/10/27 07:26:09;;;;;;;14.88;8.55;;;13.50;99.90;;;;;;6278338;22;20016;-84
2022/10/27 07:28:35;;;;;;;14.43;7.78;;;13.50;99.90;;;;;;6250690;22;20016;-84
2022/10/27 07:31:00;;;;;;;17.05;8.55;;;13.50;99.90;;;;;;6248982;22;20095;-84
2022/10/27 07:33:26;;;;;;;17.58;8.55;;;13.50;99.90;;;;;;6277890;22;20047;-84
2022/10/27 07:35:52;;;;;;;15.75;7.53;;;13.50;99.90;;;;;;6249741;22;20016;-84
2022/10/27 07:38:19;;;;;;;15.90;7.50;;;13.60;99.90;;;;;;6278177;22;20060;-83
2022/10/27 07:40:45;;;;;;;14.55;7.57;;;13.60;99.90;;;;;;6250356;22;20012;-84
2022/10/27 07:43:10;;;;;;;15.52;8.13;;;13.60;99.90;;;;;;6249958;22;20012;-84
2022/10/27 07:45:39;;;;;;;21.20;8.80;;;13.60;99.90;;;;;;6278384;22;20083;-84
2022/10/27 07:48:06;;;;;;;16.35;8.30;;;13.60;99.90;;;;;;6250234;22;20086;-84
2022/10/27 07:50:33;;;;;;;15.23;7.28;;;13.70;99.90;;;;;;6249742;22;20012;-84
2022/10/27 07:52:59;;;;;;;14.93;7.10;;;13.70;99.90;;;;;;6250564;22;20371;-84
2022/10/27 07:55:26;;;;;;;16.38;8.95;;;13.70;99.90;;;;;;6250796;22;20011;-83
2022/10/27 07:58:00;;;;;;;13.52;7.70;;;13.70;99.90;;;;;;6276681;22;20305;-84
2022/10/27 08:00:27;;;;;;;12.00;6.65;;;13.80;99.90;;;;;;6250638;22;20046;-84
2022/10/27 08:02:52;;;;;;;15.45;7.50;;;13.80;99.90;;;;;;6250567;22;20436;-85
2022/10/27 08:05:18;;;;;;;10.68;6.55;;;13.80;99.90;;;;;;6277427;22;20071;-87
2022/10/27 08:07:44;;;;;;;18.00;8.23;;;13.90;99.90;;;;;;6249997;22;20020;-86
2022/10/27 08:10:09;;;;;;;14.10;7.43;;;13.80;99.90;;;;;;6250441;22;20044;-84
2022/10/27 08:12:40;;;;;;;17.05;7.90;;;13.90;99.90;;;;;;6249711;22;20423;-84
2022/10/27 08:15:07;;;;;;;15.43;7.45;;;13.90;99.90;;;;;;6250452;22;20016;-85
2022/10/27 08:17:33;;;;;;;12.75;7.20;;;13.90;99.90;;;;;;6277907;22;20104;-85
2022/10/27 08:19:58;;;;;;;13.40;6.63;;;14.00;99.90;;;;;;6249007;22;20471;-85
2022/10/27 08:22:24;;;;;;;18.40;7.43;;;14.00;99.90;;;;;;6277548;22;20051;-85
2022/10/27 08:24:50;;;;;;;12.95;6.30;;;14.00;99.90;;;;;;6249404;22;20040;-85
2022/10/27 08:27:15;;;;;;;11.20;6.65;;;14.00;99.90;;;;;;6249861;22;20047;-85
2022/10/27 08:29:41;;;;;;;16.33;6.90;;;14.10;99.90;;;;;;6277459;22;20012;-85
2022/10/27 08:32:09;;;;;;;14.30;6.30;;;14.10;99.90;;;;;;6248893;22;20454;-84
2022/10/27 08:34:34;;;;;;;14.75;7.03;;;14.10;99.90;;;;;;6277759;22;20024;-85
2022/10/27 08:37:00;;;;;;;12.82;6.60;;;14.10;99.90;;;;;;6277362;22;20014;-85
2022/10/27 08:39:25;;;;;;;13.32;7.00;;;14.20;99.90;;;;;;6249357;22;20103;-85
2022/10/27 08:42:11;;;;;;;14.70;6.82;;;14.20;99.90;;;;;;6277234;22;20026;-84
2022/10/27 08:44:43;;;;;;;15.43;7.38;;;14.20;99.90;;;;;;6250185;22;20020;-85
2022/10/27 08:47:18;;;;;;;18.08;7.78;;;14.20;99.90;;;;;;6276571;22;20090;-84
2022/10/27 08:49:50;;;;;;;16.75;6.82;;;14.30;99.90;;;;;;6249788;22;20047;-88
2022/10/27 08:52:53;;;;;;;13.35;6.78;;;14.40;99.90;;;;;;6249562;22;20016;-85
2022/10/27 08:55:50;;;;;;;15.77;6.23;;;14.40;99.90;;;;;;6203092;22;20091;-96
2022/10/27 09:01:05;;;;;;;11.80;6.32;;;14.50;99.90;;;;;;6250162;23;20340;-85
2022/10/27 09:04:04;;;;;;;15.27;6.00;;;14.60;99.90;;;;;;6249649;22;20321;-85
2022/10/27 09:06:38;;;;;;;13.65;6.03;;;14.60;99.90;;;;;;6277174;22;20509;-85
2022/10/27 09:09:46;;;;;;;11.15;5.78;;;14.70;99.90;;;;;;6248609;22;20451;-85
2022/10/27 09:12:23;;;;;;;14.73;5.45;;;14.80;99.90;;;;;;6249911;22;20016;-85
2022/10/27 09:15:16;;;;;;;14.10;5.68;;;14.90;99.90;;;;;;6276007;22;20019;-85
2022/10/27 09:18:25;;;;;;;15.05;5.30;;;15.00;99.90;;;;;;6250033;22;20065;-85
2022/10/27 09:20:54;;;;;;;11.65;5.30;;;15.00;99.90;;;;;;6158235;23;20017;-85
2022/10/27 09:23:43;;;;;;;11.35;5.22;;;15.10;99.90;;;;;;6232525;22;20007;-85
2022/10/27 09:26:11;;;;;;;12.77;4.95;;;15.20;99.90;;;;;;6248694;22;20026;-85
2022/10/27 09:28:51;;;;;;;10.40;5.40;;;15.20;99.90;;;;;;6276145;22;20019;-84
2022/10/27 09:31:34;;;;;;;13.45;4.78;;;15.30;99.90;;;;;;6249838;22;20012;-85
2022/10/27 09:34:39;;;;;;;11.35;4.70;;;15.30;99.90;;;;;;6249480;22;20026;-85
2022/10/27 09:37:15;;;;;;;;;;;15.40;99.90;;;;;;6248656;22;20080;-85
2022/10/27 09:39:53;;;;;;;10.98;4.93;;;15.40;99.90;;;;;;6249206;22;19922;-85
2022/10/27 09:42:20;;;;;;;13.70;4.78;;;15.40;99.90;;;;;;6249635;22;20348;-85
2022/10/27 09:44:54;;;;;;;11.15;4.85;;;15.50;99.90;;;;;;6277135;22;20055;-85
2022/10/27 09:47:23;;;;;;;9.70;4.47;;;15.60;99.90;;;;;;6249522;22;20505;-85
2022/10/27 09:49:50;;;;;;;12.00;4.75;;;15.60;99.90;;;;;;6248006;22;20020;-86
2022/10/27 09:52:40;;;;;;;9.13;4.15;;;15.70;99.90;;;;;;6244159;23;20458;-85
2022/10/27 09:55:06;;;;;;;9.40;3.72;;;15.80;99.90;;;;;;6266580;22;20016;-85
2022/10/27 09:57:34;;;;;;;10.23;4.60;;;15.80;99.90;;;;;;6248279;22;20011;-85
2022/10/27 10:00:15;;;;;;;5.65;3.47;;;15.90;99.90;;;;;;6248963;22;20026;-85
2022/10/27 10:03:02;;;;;;;10.93;3.92;;;15.80;99.90;;;;;;6276705;22;20085;-85
2022/10/27 10:05:30;;;;;;;8.70;3.90;;;15.90;99.90;;;;;;6248831;22;20007;-85
2022/10/27 10:08:21;;;;;;;10.10;3.60;;;16.00;99.90;;;;;;6248853;22;20050;-85
2022/10/27 10:10:52;;;;;;;9.45;3.65;;;16.00;99.90;;;;;;6273561;22;20019;-85
2022/10/27 10:13:20;;;;;;;10.88;3.65;;;16.10;99.90;;;;;;6249608;22;20132;-86
2022/10/27 10:15:46;;;;;;;8.93;3.50;;;16.10;99.90;;;;;;6276561;22;20015;-85
2022/10/27 10:18:27;;;;;;;7.63;3.30;;;16.20;99.90;;;;;;6248476;22;20078;-85
2022/10/27 10:20:57;;;;;;;7.70;3.40;;;16.30;99.90;;;;;;6274332;22;20012;-84
2022/10/27 10:23:25;;;;;;;8.52;3.30;;;16.30;99.90;;;;;;6276458;22;20011;-85
2022/10/27 10:25:54;;;;;;;8.55;3.22;;;16.40;99.90;;;;;;6275159;22;20451;-85
2022/10/27 10:28:32;;;;;;;7.95;3.03;;;16.40;99.90;;;;;;6276784;22;20016;-85
2022/10/27 10:30:58;;;;;;;9.30;3.03;;;16.50;99.90;;;;;;6276692;22;20015;-85
2022/10/27 10:33:30;;;;;;;8.70;2.80;;;16.50;99.80;;;;;;6275778;22;20378;-86
2022/10/27 10:35:57;;;;;;;6.97;3.00;;;16.60;99.60;;;;;;6281965;22;20023;-85
2022/10/27 10:38:22;;;;;;;7.05;2.70;;;16.70;99.60;;;;;;6292263;22;20012;-85
2022/10/27 10:41:15;;;;;;;7.10;2.50;;;16.70;99.40;;;;;;6253786;22;20502;-85
2022/10/27 10:43:42;;;;;;;7.78;2.55;;;16.80;99.50;;;;;;6240158;22;20516;-85
2022/10/27 10:46:38;;;;;;;7.88;2.65;;;16.80;99.20;;;;;;6255691;22;20012;-86
2022/10/27 10:49:11;;;;;;;6.35;2.42;;;16.90;99.00;;;;;;6170781;22;20017;-85
2022/10/27 10:51:38;;;;;;;6.18;2.13;;;17.00;99.00;;;;;;6251010;22;20347;-86
2022/10/27 10:54:12;;;;;;;6.43;2.20;;;17.00;98.90;;;;;;6248929;22;20332;-86
2022/10/27 10:56:38;;;;;;;7.03;2.00;;;17.10;98.80;;;;;;6251364;22;20444;-84
2022/10/27 10:59:16;;;;;;;6.95;2.05;;;17.10;98.60;;;;;;6278099;22;20018;-85
2022/10/27 11:02:19;;;;;;;6.22;1.88;;;17.20;98.50;;;;;;6277159;22;20503;-85
2022/10/27 11:04:47;;;;;;;6.20;1.73;;;17.20;98.50;;;;;;6250491;22;20022;-84
2022/10/27 11:07:30;;;;;;;4.18;1.85;;;17.30;98.50;;;;;;6250102;22;20065;-84
2022/10/27 11:10:16;;;;;;;7.03;1.80;;;17.40;98.20;;;;;;6277833;22;20091;-84
2022/10/27 11:12:49;;;;;;;4.30;1.67;;;17.40;98.00;;;;;;6250849;22;20015;-86
2022/10/27 11:15:31;;;;;;;7.03;1.77;;;17.50;98.10;;;;;;6250381;22;20051;-84
2022/10/27 11:18:09;;;;;;;7.65;1.70;;;17.60;97.70;;;;;;6278165;22;20015;-85
2022/10/27 11:20:36;;;;;;;4.40;1.75;;;17.60;97.40;;;;;;6278026;22;20074;-84
2022/10/27 11:23:15;;;;;;;6.53;2.10;;;17.70;97.50;;;;;;6276985;22;20304;-85
2022/10/27 11:25:41;;;;;;;7.75;1.73;;;17.80;97.30;;;;;;6277891;22;20509;-84
2022/10/27 11:28:39;;;;;;;6.38;1.60;;;17.80;97.20;;;;;;6250302;22;20012;-85
2022/10/27 11:31:25;;;;;;;5.57;1.50;;;17.90;96.90;;;;;;6250877;22;20019;-84
2022/10/27 11:34:13;;;;;;;7.07;1.45;;;17.90;97.10;;;;;;6251074;22;20018;-84
2022/10/27 11:36:45;;;;;;;5.97;1.83;;;17.90;96.70;;;;;;6277149;22;20090;-84
2022/10/27 11:39:28;;;;;;;6.22;1.33;;;18.00;96.70;;;;;;6277975;22;20098;-85
2022/10/27 11:42:02;;;;;;;4.80;1.15;;;18.00;96.50;;;;;;6276899;22;20366;-84
2022/10/27 11:44:42;;;;;;;6.30;1.30;;;18.00;96.50;;;;;;6278098;22;20105;-85
2022/10/27 11:47:11;;;;;;;4.70;1.27;;;18.10;96.30;;;;;;6251105;22;20439;-84
2022/10/27 11:50:08;;;;;;;5.50;1.40;;;18.10;96.30;;;;;;6249328;22;20367;-85
2022/10/27 11:52:46;;;;;;;4.97;1.30;;;18.10;96.20;;;;;;6245285;22;20012;-84
2022/10/27 11:55:18;;;;;;;5.70;1.45;;;18.10;96.20;;;;;;6277296;22;20447;-84
2022/10/27 11:58:01;;;;;;;6.00;1.42;;;18.20;96.10;;;;;;6249293;22;20043;-85
2022/10/27 12:00:28;;;;;;;7.57;1.40;;;18.20;96.10;;;;;;6249162;22;20459;-84
2022/10/27 12:03:19;;;;;;;5.75;1.27;;;18.20;96.10;;;;;;6250238;22;20100;-84
2022/10/27 12:06:06;;;;;;;4.15;1.20;;;18.20;95.90;;;;;;6249920;22;20042;-84
2022/10/27 12:09:03;;;;;;;4.78;1.20;;;18.20;95.90;;;;;;6249074;22;20086;-84
2022/10/27 12:11:50;;;;;;;4.18;1.20;;;18.30;96.00;;;;;;6249414;22;20020;-84
2022/10/27 12:14:31;;;;;;;4.75;1.30;;;18.30;96.10;;;;;;6277625;22;20046;-84
2022/10/27 12:17:27;;;;;;;5.68;1.15;;;18.30;96.20;;;;;;6275602;22;20405;-84
2022/10/27 12:19:55;;;;;;;3.85;1.13;;;18.40;96.00;;;;;;6249825;22;20383;-84
2022/10/27 12:22:35;;;;;;;7.00;1.35;;;18.30;96.00;;;;;;6250200;22;20019;-84
2022/10/27 12:25:14;;;;;;;5.78;1.20;;;18.40;96.00;;;;;;6248574;22;20043;-84
2022/10/27 12:27:53;;;;;;;5.88;1.55;;;18.40;96.00;;;;;;6275747;22;20015;-84
2022/10/27 12:30:20;;;;;;;8.88;1.35;;;18.40;95.80;;;;;;6277108;22;20008;-84
2022/10/27 12:33:08;;;;;;;4.95;1.50;;;18.40;96.00;;;;;;6249640;22;20016;-83
2022/10/27 12:35:53;;;;;;;8.10;1.50;;;18.40;95.80;;;;;;6277539;22;20043;-84
2022/10/27 12:38:31;;;;;;;4.65;1.45;;;18.40;95.80;;;;;;6276218;22;20039;-84
2022/10/27 12:41:05;;;;;;;4.70;1.40;;;18.40;96.00;;;;;;6248536;22;20055;-84
2022/10/27 12:44:24;;;;;;;5.20;1.33;;;18.40;95.90;;;;;;6249944;22;20016;-84
2022/10/27 12:47:14;;;;;;;8.52;1.40;;;18.40;96.00;;;;;;6181776;23;20089;-84
2022/10/27 12:49:49;;;;;;;5.75;1.30;;;18.40;96.10;;;;;;6246424;22;20020;-84
2022/10/27 12:52:24;;;;;;;7.90;1.23;;;18.40;96.10;;;;;;6275306;22;20035;-84
2022/10/27 12:55:19;;;;;;;7.80;1.40;;;18.50;96.20;;;;;;6249414;22;20030;-84
2022/10/27 12:58:09;;;;;;;5.90;1.55;;;18.50;96.00;;;;;;6249300;22;20022;-84
2022/10/27 13:00:50;;;;;;;5.30;1.30;;;18.50;95.90;;;;;;6248170;22;20020;-83
2022/10/27 13:03:22;;;;;;;6.30;1.27;;;18.60;95.90;;;;;;6276501;22;20059;-83
2022/10/27 13:06:31;;;;;;;6.00;1.40;;;18.60;95.80;;;;;;6276565;22;20026;-84
2022/10/27 13:09:06;;;;;;;5.90;1.38;;;18.60;95.70;;;;;;6276677;22;20016;-84
2022/10/27 13:12:03;;;;;;;10.77;1.70;;;18.70;95.70;;;;;;6249446;22;20038;-84
2022/10/27 13:14:59;;;;;;;8.27;1.45;;;18.70;95.60;;;;;;6248594;22;20012;-83
2022/10/27 13:17:44;;;;;;;8.13;1.63;;;18.70;95.50;;;;;;6275238;22;20382;-84
2022/10/27 13:20:39;;;;;;;5.45;1.20;;;18.70;95.50;;;;;;6249219;22;20020;-84
2022/10/27 13:23:24;;;;;;;5.20;1.23;;;18.80;95.60;;;;;;6248912;22;20071;-83
2022/10/27 13:25:58;;;;;;;5.22;1.48;;;18.80;95.70;;;;;;6249004;22;20070;-83
2022/10/27 13:28:35;;;;;;;8.02;1.50;;;18.80;95.80;;;;;;6274949;22;20028;-83
2022/10/27 13:31:30;;;;;;;7.30;2.10;;;18.80;95.80;;;;;;6275932;22;20031;-83
2022/10/27 13:34:07;;;;;;;6.00;1.60;;;18.90;95.80;;;;;;6248423;22;20015;-83